Time;durP1;ratioP1;P1;durP2;ratioP2;P2;SDS_P1;SDS_P2;PMS_P1;PMS_P2;Temp;Humidity;BMP_temperature;BMP_pressure;BME280_temperature;BME280_humidity;BME280_pressure;Samples;Min_cycle;Max_cycle;Signal;HPM_P1;HPM_P2
2022/04/17 00:01:38;;;;;;;6.90;4.18;;;;;;;;;;4958305;29;20035;-85
2022/04/17 00:04:03;;;;;;;6.97;4.63;;;;;;;;;;4925356;29;20034;-85
2022/04/17 00:06:28;;;;;;;8.52;4.90;;;;;;;;;;4941090;29;20377;-84
2022/04/17 00:08:53;;;;;;;7.63;4.97;;;;;;;;;;4941652;29;20114;-85
2022/04/17 00:11:19;;;;;;;6.45;4.18;;;;;;;;;;4958844;29;20044;-84
2022/04/17 00:13:44;;;;;;;6.57;4.13;;;;;;;;;;4959022;29;20074;-83
2022/04/17 00:16:09;;;;;;;7.88;4.57;;;;;;;;;;4924363;29;20137;-82
2022/04/17 00:18:34;;;;;;;6.00;3.90;;;;;;;;;;4957726;29;20043;-82
2022/04/17 00:21:00;;;;;;;8.23;4.07;;;;;;;;;;4965250;29;20113;-83
2022/04/17 00:23:25;;;;;;;6.03;3.88;;;;;;;;;;4958591;29;20031;-82
2022/04/17 00:25:50;;;;;;;7.75;4.47;;;;;;;;;;4957056;28;20485;-84
2022/04/17 00:28:16;;;;;;;6.25;4.05;;;;;;;;;;4958205;29;20058;-85
2022/04/17 00:30:41;;;;;;;7.68;4.10;;;;;;;;;;4957454;29;20050;-84
2022/04/17 00:33:06;;;;;;;6.22;4.05;;;;;;;;;;4940910;29;20039;-84
2022/04/17 00:35:31;;;;;;;5.45;3.72;;;;;;;;;;4957463;29;20381;-83
2022/04/17 00:37:57;;;;;;;7.78;4.10;;;;;;;;;;4957411;29;20060;-83
2022/04/17 00:40:22;;;;;;;6.75;3.85;;;;;;;;;;4941115;29;20650;-83
2022/04/17 00:42:48;;;;;;;6.45;4.25;;;;;;;;;;4925358;29;20035;-82
2022/04/17 00:45:14;;;;;;;6.30;3.65;;;;;;;;;;4924442;29;20039;-83
2022/04/17 00:47:40;;;;;;;7.30;4.40;;;;;;;;;;4956700;29;20045;-83
2022/04/17 00:50:07;;;;;;;6.53;4.20;;;;;;;;;;4958078;29;20058;-83
2022/04/17 00:52:32;;;;;;;5.85;4.20;;;;;;;;;;4958353;29;20122;-83
2022/04/17 00:55:00;;;;;;;7.35;4.00;;;;;;;;;;4940378;29;20058;-83
2022/04/17 00:57:25;;;;;;;7.10;3.75;;;;;;;;;;4957491;29;20039;-83
2022/04/17 00:59:50;;;;;;;5.85;3.78;;;;;;;;;;4957696;29;20039;-83
2022/04/17 01:02:15;;;;;;;7.10;3.92;;;;;;;;;;4958638;29;20030;-84
2022/04/17 01:04:41;;;;;;;10.18;4.40;;;;;;;;;;4923862;29;20039;-84
2022/04/17 01:07:06;;;;;;;6.18;3.70;;;;;;;;;;4957164;29;20031;-84
2022/04/17 01:09:31;;;;;;;5.85;3.80;;;;;;;;;;4957128;29;20047;-84
2022/04/17 01:11:56;;;;;;;13.50;8.05;;;;;;;;;;4924179;29;20064;-84
2022/04/17 01:14:22;;;;;;;7.25;3.90;;;;;;;;;;4956375;29;20027;-81
2022/04/17 01:16:47;;;;;;;6.32;4.30;;;;;;;;;;4956775;29;20078;-82
2022/04/17 01:19:12;;;;;;;6.18;3.55;;;;;;;;;;4939604;29;20029;-83
2022/04/17 01:21:38;;;;;;;7.95;4.05;;;;;;;;;;4965667;29;20400;-84
2022/04/17 01:26:56;;;;;;;6.88;4.18;;;;;;;;;;4957781;29;20039;-83
2022/04/17 01:29:21;;;;;;;6.63;4.80;;;;;;;;;;4956996;29;20039;-83
2022/04/17 01:31:49;;;;;;;7.25;4.63;;;;;;;;;;4958234;29;20031;-83
2022/04/17 01:34:15;;;;;;;6.32;4.40;;;;;;;;;;4923280;29;20552;-83
2022/04/17 01:36:40;;;;;;;6.05;4.15;;;;;;;;;;4959321;28;20488;-84
2022/04/17 01:39:05;;;;;;;6.75;4.28;;;;;;;;;;4960956;29;20042;-83
2022/04/17 01:41:30;;;;;;;5.03;3.78;;;;;;;;;;4961031;29;20034;-83
2022/04/17 01:43:56;;;;;;;5.28;3.67;;;;;;;;;;4943962;29;20062;-82
2022/04/17 01:46:22;;;;;;;7.30;3.90;;;;;;;;;;4961088;29;20476;-84
2022/04/17 01:48:47;;;;;;;5.03;3.47;;;;;;;;;;4928130;29;20043;-83
2022/04/17 01:51:12;;;;;;;7.07;3.85;;;;;;;;;;4942860;29;20046;-84
2022/04/17 01:53:38;;;;;;;5.65;3.67;;;;;;;;;;4943721;29;20035;-84
2022/04/17 01:56:03;;;;;;;7.30;3.75;;;;;;;;;;4960177;29;20031;-83
2022/04/17 01:58:28;;;;;;;7.45;3.95;;;;;;;;;;4943434;29;20038;-83
2022/04/17 02:00:53;;;;;;;5.60;3.75;;;;;;;;;;4959867;29;20043;-83
2022/04/17 02:03:19;;;;;;;6.03;3.50;;;;;;;;;;4959880;29;20031;-82
2022/04/17 02:05:44;;;;;;;6.45;3.78;;;;;;;;;;4926362;29;20521;-82
2022/04/17 02:08:09;;;;;;;7.45;3.97;;;;;;;;;;4926403;29;20139;-82
2022/04/17 02:10:34;;;;;;;5.32;3.50;;;;;;;;;;4959788;29;20047;-82
2022/04/17 02:13:00;;;;;;;6.05;3.50;;;;;;;;;;4942249;29;20094;-83
2022/04/17 02:15:25;;;;;;;5.53;3.60;;;;;;;;;;4942836;29;20085;-83
2022/04/17 02:17:51;;;;;;;5.28;3.40;;;;;;;;;;4942562;29;20042;-84
2022/04/17 02:20:16;;;;;;;5.50;3.75;;;;;;;;;;4941483;29;20031;-84
2022/04/17 02:22:41;;;;;;;5.68;3.47;;;;;;;;;;4968210;29;20102;-83
2022/04/17 02:25:06;;;;;;;4.32;3.17;;;;;;;;;;4959784;29;20054;-85
2022/04/17 02:27:32;;;;;;;6.80;3.60;;;;;;;;;;4928358;29;20480;-84
2022/04/17 02:29:57;;;;;;;5.30;3.65;;;;;;;;;;4961638;29;20039;-84
2022/04/17 02:32:22;;;;;;;5.85;3.60;;;;;;;;;;4943730;29;20415;-85
2022/04/17 02:34:47;;;;;;;4.75;3.00;;;;;;;;;;4942943;29;20028;-83
2022/04/17 02:39:45;;;;;;;5.80;3.47;;;;;;;;;;4956240;29;20066;-80
2022/04/17 02:42:10;;;;;;;5.35;3.58;;;;;;;;;;4957809;28;20027;-80
2022/04/17 02:44:36;;;;;;;5.05;3.42;;;;;;;;;;4956732;29;20034;-81
2022/04/17 02:49:45;;;;;;;4.95;3.65;;;;;;;;;;4938458;28;20508;-81
2022/04/17 02:52:10;;;;;;;97.32;46.30;;;;;;;;;;4939044;29;20042;-81
2022/04/17 02:54:35;;;;;;;42.05;22.58;;;;;;;;;;4938329;28;20032;-81
2022/04/17 02:57:01;;;;;;;20.02;10.80;;;;;;;;;;4938683;29;20131;-80
2022/04/17 02:59:26;;;;;;;46.58;15.20;;;;;;;;;;4937010;29;20032;-80
2022/04/17 03:07:19;;;;;;;10.68;5.53;;;;;;;;;;4938159;29;20052;-81
2022/04/17 03:09:44;;;;;;;16.17;6.97;;;;;;;;;;4938036;29;20046;-80
2022/04/17 03:12:10;;;;;;;17.90;7.10;;;;;;;;;;4938568;29;20039;-81
2022/04/17 03:14:35;;;;;;;8.43;4.57;;;;;;;;;;4937825;29;20153;-81
2022/04/17 03:17:04;;;;;;;9.52;4.47;;;;;;;;;;4938068;29;20063;-81
2022/04/17 03:19:29;;;;;;;8.93;4.63;;;;;;;;;;4937765;29;20036;-81
2022/04/17 03:21:54;;;;;;;5.65;3.72;;;;;;;;;;4937866;29;20082;-80
2022/04/17 03:24:20;;;;;;;8.43;3.60;;;;;;;;;;4937677;29;20028;-81
2022/04/17 03:26:45;;;;;;;6.18;3.60;;;;;;;;;;4938225;29;20035;-80
2022/04/17 03:29:10;;;;;;;9.75;3.70;;;;;;;;;;4938072;29;20039;-81
2022/04/17 03:31:35;;;;;;;5.82;4.03;;;;;;;;;;4937799;29;20044;-81
2022/04/17 03:34:01;;;;;;;6.90;3.80;;;;;;;;;;4937426;29;20055;-81
2022/04/17 03:36:26;;;;;;;8.45;3.80;;;;;;;;;;4937649;29;20035;-81
2022/04/17 03:38:51;;;;;;;5.20;3.60;;;;;;;;;;4937897;29;20103;-81
2022/04/17 03:41:16;;;;;;;5.95;3.80;;;;;;;;;;4938109;29;20046;-81
2022/04/17 03:43:42;;;;;;;6.53;3.70;;;;;;;;;;4937440;29;20063;-81
2022/04/17 03:46:07;;;;;;;5.70;3.45;;;;;;;;;;4935909;29;20036;-81
2022/04/17 03:48:32;;;;;;;5.07;3.30;;;;;;;;;;4936368;29;20032;-81
2022/04/17 03:50:58;;;;;;;4.43;3.30;;;;;;;;;;4937262;29;20031;-81
2022/04/17 03:53:23;;;;;;;7.20;3.42;;;;;;;;;;4937305;29;20103;-81
2022/04/17 03:55:49;;;;;;;5.45;3.45;;;;;;;;;;4936766;29;20039;-81
2022/04/17 03:58:14;;;;;;;8.70;3.65;;;;;;;;;;4937299;29;20452;-81
2022/04/17 04:00:39;;;;;;;4.82;3.10;;;;;;;;;;4937146;29;20047;-81
2022/04/17 04:03:04;;;;;;;6.32;3.58;;;;;;;;;;4936517;29;20412;-81
2022/04/17 04:05:31;;;;;;;6.68;3.38;;;;;;;;;;4936999;29;20055;-81
2022/04/17 04:07:57;;;;;;;4.43;3.30;;;;;;;;;;4937593;29;20027;-81
2022/04/17 04:10:22;;;;;;;8.93;3.83;;;;;;;;;;4936911;29;20039;-81
2022/04/17 04:12:47;;;;;;;8.27;3.97;;;;;;;;;;4937565;29;20036;-81
2022/04/17 04:15:12;;;;;;;7.68;3.70;;;;;;;;;;4936566;29;20516;-81
2022/04/17 04:17:38;;;;;;;13.23;5.03;;;;;;;;;;4937118;29;20036;-82
2022/04/17 04:20:03;;;;;;;6.88;3.72;;;;;;;;;;4937231;29;20050;-81
2022/04/17 04:22:28;;;;;;;6.13;3.55;;;;;;;;;;4937082;29;20126;-81
2022/04/17 04:24:53;;;;;;;5.50;3.30;;;;;;;;;;4936592;29;20020;-81
2022/04/17 04:30:02;;;;;;;6.22;3.40;;;;;;;;;;4937025;29;20047;-82
2022/04/17 04:32:28;;;;;;;4.75;3.33;;;;;;;;;;4937458;29;20051;-81
2022/04/17 04:34:56;;;;;;;6.28;3.95;;;;;;;;;;4936446;29;20050;-81
2022/04/17 04:37:21;;;;;;;7.38;3.67;;;;;;;;;;4936881;29;20075;-82
2022/04/17 04:39:46;;;;;;;7.93;5.07;;;;;;;;;;4937366;29;20050;-81
2022/04/17 04:42:12;;;;;;;10.88;5.20;;;;;;;;;;4936916;29;20039;-81
2022/04/17 04:44:37;;;;;;;23.25;9.02;;;;;;;;;;4935121;29;20032;-81
2022/04/17 04:47:02;;;;;;;18.90;7.03;;;;;;;;;;4936402;29;20028;-81
2022/04/17 04:49:31;;;;;;;13.05;5.97;;;;;;;;;;4936032;29;20043;-80
2022/04/17 04:51:56;;;;;;;17.60;6.25;;;;;;;;;;4935661;29;20497;-80
2022/04/17 04:54:21;;;;;;;12.60;6.28;;;;;;;;;;4936518;29;20034;-81
2022/04/17 04:56:46;;;;;;;11.25;5.60;;;;;;;;;;4935859;29;20047;-81
2022/04/17 04:59:12;;;;;;;9.27;4.50;;;;;;;;;;4936968;29;20094;-80
2022/04/17 05:01:37;;;;;;;7.45;4.10;;;;;;;;;;4937110;29;20071;-80
2022/04/17 05:04:02;;;;;;;7.65;4.20;;;;;;;;;;4935738;29;20123;-80
2022/04/17 05:06:27;;;;;;;8.07;4.68;;;;;;;;;;4937023;29;20031;-80
2022/04/17 05:08:52;;;;;;;10.40;4.93;;;;;;;;;;4936993;29;20071;-80
2022/04/17 05:11:19;;;;;;;10.15;4.95;;;;;;;;;;4938169;29;20039;-81
2022/04/17 05:13:44;;;;;;;8.27;4.35;;;;;;;;;;4939528;29;20376;-82
2022/04/17 05:16:10;;;;;;;9.25;4.65;;;;;;;;;;4940080;29;20086;-80
2022/04/17 05:18:35;;;;;;;6.63;4.18;;;;;;;;;;4939094;29;20106;-81
2022/04/17 05:21:00;;;;;;;13.88;4.03;;;;;;;;;;4940132;29;20100;-80
2022/04/17 05:23:26;;;;;;;13.18;6.15;;;;;;;;;;4940570;29;20042;-81
2022/04/17 05:25:51;;;;;;;10.07;5.25;;;;;;;;;;4938742;29;20040;-80
2022/04/17 05:28:16;;;;;;;8.57;4.80;;;;;;;;;;4940383;29;20040;-80
2022/04/17 05:30:42;;;;;;;7.63;5.05;;;;;;;;;;4923661;29;20028;-80
2022/04/17 05:33:07;;;;;;;10.65;4.70;;;;;;;;;;4938986;29;20035;-80
2022/04/17 05:35:32;;;;;;;9.02;5.78;;;;;;;;;;4939199;29;20032;-79
2022/04/17 05:37:57;;;;;;;12.90;4.20;;;;;;;;;;4938029;29;20039;-80
2022/04/17 05:40:24;;;;;;;7.05;4.03;;;;;;;;;;4939936;29;20086;-80
2022/04/17 05:42:49;;;;;;;7.13;3.45;;;;;;;;;;4938375;29;20063;-80
2022/04/17 05:45:14;;;;;;;6.20;3.50;;;;;;;;;;4939193;29;20090;-80
2022/04/17 05:47:39;;;;;;;7.05;4.18;;;;;;;;;;4939779;29;20036;-80
2022/04/17 05:50:05;;;;;;;7.38;4.10;;;;;;;;;;4938465;29;20036;-80
2022/04/17 05:52:30;;;;;;;6.90;4.10;;;;;;;;;;4938132;29;20080;-80
2022/04/17 05:54:55;;;;;;;8.18;3.95;;;;;;;;;;4939255;29;20480;-78
2022/04/17 05:57:21;;;;;;;6.25;3.83;;;;;;;;;;4939613;29;20047;-80
2022/04/17 05:59:47;;;;;;;9.00;4.00;;;;;;;;;;4938490;29;20036;-83
2022/04/17 06:02:15;;;;;;;6.82;4.00;;;;;;;;;;4938630;29;20074;-79
2022/04/17 06:04:40;;;;;;;7.78;4.25;;;;;;;;;;4938844;29;20035;-80
2022/04/17 06:07:05;;;;;;;6.60;4.00;;;;;;;;;;4939343;29;20396;-80
2022/04/17 06:09:31;;;;;;;6.32;3.70;;;;;;;;;;4938757;29;20039;-80
2022/04/17 06:11:56;;;;;;;7.68;3.88;;;;;;;;;;4939270;29;20114;-80
2022/04/17 06:14:21;;;;;;;6.80;3.03;;;;;;;;;;4938507;29;20516;-80
2022/04/17 06:16:47;;;;;;;5.90;3.20;;;;;;;;;;4937933;29;20039;-81
2022/04/17 06:19:12;;;;;;;5.13;3.28;;;;;;;;;;4939141;29;20036;-80
2022/04/17 06:21:38;;;;;;;5.40;3.15;;;;;;;;;;4921499;29;20043;-80
2022/04/17 06:24:03;;;;;;;4.32;2.88;;;;;;;;;;4938297;29;20043;-81
2022/04/17 06:26:28;;;;;;;6.68;3.92;;;;;;;;;;4938351;29;20590;-81
2022/04/17 06:28:53;;;;;;;5.72;3.10;;;;;;;;;;4938847;29;20082;-81
2022/04/17 06:31:19;;;;;;;4.30;3.08;;;;;;;;;;4938581;29;20072;-80
2022/04/17 06:33:44;;;;;;;4.82;3.00;;;;;;;;;;4938906;29;20511;-81
2022/04/17 06:36:09;;;;;;;5.88;2.75;;;;;;;;;;4937319;28;20047;-81
2022/04/17 06:38:34;;;;;;;5.50;3.10;;;;;;;;;;4937783;29;20053;-81
2022/04/17 06:41:00;;;;;;;4.20;2.80;;;;;;;;;;4921410;29;20046;-81
2022/04/17 06:43:25;;;;;;;3.72;2.45;;;;;;;;;;4938944;29;20059;-81
2022/04/17 06:45:50;;;;;;;3.58;2.53;;;;;;;;;;4937622;29;20496;-82
2022/04/17 06:48:15;;;;;;;6.65;3.20;;;;;;;;;;4937575;29;20600;-81
2022/04/17 06:50:41;;;;;;;4.05;2.67;;;;;;;;;;4939000;29;20047;-82
2022/04/17 06:53:06;;;;;;;4.72;3.03;;;;;;;;;;4939350;29;20401;-81
2022/04/17 06:55:31;;;;;;;4.93;2.97;;;;;;;;;;4938185;28;20031;-81
2022/04/17 06:57:57;;;;;;;4.70;2.67;;;;;;;;;;4938523;29;20036;-81
2022/04/17 07:00:22;;;;;;;4.10;2.63;;;;;;;;;;4938811;29;20086;-81
2022/04/17 07:02:47;;;;;;;3.72;2.45;;;;;;;;;;4939063;29;20032;-80
2022/04/17 07:05:15;;;;;;;4.32;2.67;;;;;;;;;;4938517;29;20059;-81
2022/04/17 07:07:41;;;;;;;3.50;2.50;;;;;;;;;;4938038;29;20035;-81
2022/04/17 07:10:06;;;;;;;4.05;2.58;;;;;;;;;;4937631;29;20035;-81
2022/04/17 07:12:31;;;;;;;5.40;2.85;;;;;;;;;;4938388;29;20035;-80
2022/04/17 07:14:59;;;;;;;5.47;3.53;;;;;;;;;;4937034;29;20442;-81
2022/04/17 07:17:24;;;;;;;3.97;2.45;;;;;;;;;;4938260;29;20075;-81
2022/04/17 07:19:49;;;;;;;4.07;2.95;;;;;;;;;;4937570;29;20046;-81
2022/04/17 07:22:15;;;;;;;4.97;2.80;;;;;;;;;;4937058;29;20400;-81
2022/04/17 07:24:43;;;;;;;4.70;2.90;;;;;;;;;;4937934;29;20504;-81
2022/04/17 07:27:09;;;;;;;5.57;3.20;;;;;;;;;;4937926;29;20059;-81
2022/04/17 07:29:34;;;;;;;4.30;2.80;;;;;;;;;;4939327;29;20116;-80
2022/04/17 07:31:59;;;;;;;7.10;3.30;;;;;;;;;;4936583;29;20493;-81
2022/04/17 07:34:25;;;;;;;5.43;3.00;;;;;;;;;;4935213;29;20395;-81
2022/04/17 07:36:52;;;;;;;5.28;3.22;;;;;;;;;;4938148;29;20046;-82
2022/04/17 07:39:18;;;;;;;4.30;3.00;;;;;;;;;;4936644;29;20066;-81
2022/04/17 07:41:43;;;;;;;4.97;3.00;;;;;;;;;;4936742;29;20036;-82
2022/04/17 07:44:11;;;;;;;5.07;3.15;;;;;;;;;;4936409;29;20048;-81
2022/04/17 07:46:38;;;;;;;6.07;3.00;;;;;;;;;;4937931;29;20397;-81
2022/04/17 07:49:03;;;;;;;4.50;3.17;;;;;;;;;;4936695;29;20035;-81
2022/04/17 07:51:28;;;;;;;3.95;2.88;;;;;;;;;;4937568;29;20046;-80
2022/04/17 07:53:54;;;;;;;5.22;3.45;;;;;;;;;;4936974;28;20091;-81
2022/04/17 07:56:19;;;;;;;5.20;3.28;;;;;;;;;;4936979;29;20035;-82
2022/04/17 07:58:44;;;;;;;5.07;3.00;;;;;;;;;;4936995;29;20035;-82
2022/04/17 08:01:11;;;;;;;4.85;3.30;;;;;;;;;;4937663;29;20126;-81
2022/04/17 08:03:46;;;;;;;3.72;2.95;;;;;;;;;;4936094;29;20153;-81
2022/04/17 08:06:12;;;;;;;3.58;3.08;;;;;;;;;;4935338;29;20484;-81
2022/04/17 08:08:38;;;;;;;5.07;3.05;;;;;;;;;;4936091;29;20023;-81
2022/04/17 08:11:03;;;;;;;5.07;3.08;;;;;;;;;;4937164;29;20472;-81
2022/04/17 08:13:28;;;;;;;5.53;2.97;;;;;;;;;;4937213;29;20118;-82
2022/04/17 08:15:53;;;;;;;6.03;2.97;;;;;;;;;;4919540;29;20425;-81
2022/04/17 08:18:18;;;;;;;5.43;3.20;;;;;;;;;;4936957;29;20234;-80
2022/04/17 08:20:44;;;;;;;4.63;3.00;;;;;;;;;;4936744;29;20082;-81
2022/04/17 08:23:09;;;;;;;4.50;3.13;;;;;;;;;;4934552;29;20087;-81
2022/04/17 08:25:34;;;;;;;4.85;2.95;;;;;;;;;;4935704;29;20047;-81
2022/04/17 08:28:00;;;;;;;4.93;2.90;;;;;;;;;;4935233;29;20044;-81
2022/04/17 08:30:25;;;;;;;3.92;3.00;;;;;;;;;;4936437;29;20063;-81
2022/04/17 08:32:50;;;;;;;5.20;3.17;;;;;;;;;;4936713;29;20043;-81
2022/04/17 08:35:15;;;;;;;5.00;3.38;;;;;;;;;;4936480;29;20031;-81
2022/04/17 08:37:41;;;;;;;7.80;3.28;;;;;;;;;;4935197;29;20523;-81
2022/04/17 08:40:06;;;;;;;4.82;3.22;;;;;;;;;;4936356;29;20400;-81
2022/04/17 08:42:31;;;;;;;4.88;3.30;;;;;;;;;;4936771;29;20075;-81
2022/04/17 08:44:56;;;;;;;5.05;3.17;;;;;;;;;;4936158;29;20485;-81
2022/04/17 08:47:22;;;;;;;5.15;3.10;;;;;;;;;;4936976;29;20028;-81
2022/04/17 08:49:47;;;;;;;8.23;3.20;;;;;;;;;;4936010;29;20036;-81
2022/04/17 08:52:15;;;;;;;5.07;3.05;;;;;;;;;;4937123;29;20051;-81
2022/04/17 08:54:40;;;;;;;5.95;3.50;;;;;;;;;;4937298;29;20035;-82
2022/04/17 08:57:06;;;;;;;5.75;3.22;;;;;;;;;;4937133;29;20035;-82
2022/04/17 08:59:32;;;;;;;4.85;3.08;;;;;;;;;;4936910;29;20043;-81
2022/04/17 09:02:00;;;;;;;6.43;3.30;;;;;;;;;;4937200;29;20075;-81
2022/04/17 09:04:25;;;;;;;4.47;3.30;;;;;;;;;;4936643;29;20043;-81
2022/04/17 09:06:51;;;;;;;6.13;3.20;;;;;;;;;;4936718;29;20039;-81
2022/04/17 09:09:16;;;;;;;5.13;3.00;;;;;;;;;;4934100;29;20035;-81
2022/04/17 09:11:41;;;;;;;5.60;3.22;;;;;;;;;;4934728;29;20044;-81
2022/04/17 09:14:06;;;;;;;4.70;3.08;;;;;;;;;;4934907;29;20070;-81
2022/04/17 09:16:32;;;;;;;4.68;2.97;;;;;;;;;;4933675;29;20157;-80
2022/04/17 09:18:57;;;;;;;8.55;3.25;;;;;;;;;;4934063;29;20051;-81
2022/04/17 09:21:22;;;;;;;6.28;2.97;;;;;;;;;;4935153;29;20055;-81
2022/04/17 09:23:48;;;;;;;6.28;3.03;;;;;;;;;;4935308;29;20050;-81
2022/04/17 09:26:15;;;;;;;5.05;3.05;;;;;;;;;;4936122;29;20031;-81
2022/04/17 09:28:40;;;;;;;3.97;2.83;;;;;;;;;;4936131;29;20031;-81
2022/04/17 09:31:06;;;;;;;3.58;2.60;;;;;;;;;;4936395;29;20507;-81
2022/04/17 09:33:31;;;;;;;6.47;3.00;;;;;;;;;;4935567;29;20093;-81
2022/04/17 09:35:56;;;;;;;4.88;2.80;;;;;;;;;;4934543;29;20175;-80
2022/04/17 09:38:21;;;;;;;4.80;3.00;;;;;;;;;;4936392;29;20039;-81
2022/04/17 09:40:46;;;;;;;4.85;3.00;;;;;;;;;;4935335;29;20032;-81
2022/04/17 09:43:12;;;;;;;5.75;3.00;;;;;;;;;;4936081;29;20036;-82
2022/04/17 09:45:37;;;;;;;3.60;2.72;;;;;;;;;;4918299;29;20047;-81
2022/04/17 09:48:03;;;;;;;4.88;2.85;;;;;;;;;;4936561;29;20032;-81
2022/04/17 09:50:28;;;;;;;4.75;3.13;;;;;;;;;;4936171;29;20063;-82
2022/04/17 09:52:53;;;;;;;4.95;2.95;;;;;;;;;;4936242;29;20103;-82
2022/04/17 09:55:18;;;;;;;6.60;2.90;;;;;;;;;;4935626;29;20059;-82
2022/04/17 09:57:44;;;;;;;4.70;3.00;;;;;;;;;;4935909;29;20031;-81
2022/04/17 10:00:09;;;;;;;5.65;3.05;;;;;;;;;;4939396;29;20152;-82
2022/04/17 10:02:34;;;;;;;4.95;2.80;;;;;;;;;;4918971;29;20075;-81
2022/04/17 10:04:59;;;;;;;4.65;3.00;;;;;;;;;;4920339;29;20051;-82
2022/04/17 10:07:24;;;;;;;4.18;2.80;;;;;;;;;;4934558;29;20519;-81
2022/04/17 10:09:50;;;;;;;4.95;2.70;;;;;;;;;;4939482;29;20184;-81
2022/04/17 10:12:19;;;;;;;4.93;2.65;;;;;;;;;;4937702;28;20118;-81
2022/04/17 10:14:44;;;;;;;3.65;2.50;;;;;;;;;;4937075;29;20039;-81
2022/04/17 10:17:09;;;;;;;5.18;2.80;;;;;;;;;;4938551;29;20098;-81
2022/04/17 10:19:35;;;;;;;4.72;2.70;;;;;;;;;;4938607;29;20043;-81
2022/04/17 10:22:01;;;;;;;4.45;2.90;;;;;;;;;;4938615;29;20042;-81
2022/04/17 10:24:26;;;;;;;4.32;2.83;;;;;;;;;;4936351;29;20039;-81
2022/04/17 10:26:51;;;;;;;4.00;2.80;;;;;;;;;;4937356;29;20145;-81
2022/04/17 10:29:16;;;;;;;3.95;2.75;;;;;;;;;;4937331;29;20485;-81
2022/04/17 10:31:42;;;;;;;4.72;2.75;;;;;;;;;;4935688;29;20043;-81
2022/04/17 10:34:07;;;;;;;4.03;2.70;;;;;;;;;;4936179;29;20546;-81
2022/04/17 10:36:32;;;;;;;6.20;2.92;;;;;;;;;;4935873;29;20036;-81
2022/04/17 10:38:57;;;;;;;4.00;2.70;;;;;;;;;;4937539;29;20054;-82
2022/04/17 10:41:23;;;;;;;4.78;2.35;;;;;;;;;;4937715;29;20050;-82
2022/04/17 10:43:50;;;;;;;4.10;2.60;;;;;;;;;;4939226;29;20039;-82
2022/04/17 10:46:15;;;;;;;4.20;2.70;;;;;;;;;;4938203;29;20437;-83
2022/04/17 10:48:40;;;;;;;4.15;2.55;;;;;;;;;;4939523;29;20031;-82
2022/04/17 10:51:06;;;;;;;5.20;2.60;;;;;;;;;;4937605;29;20040;-83
2022/04/17 10:53:34;;;;;;;4.18;2.30;;;;;;;;;;4938951;29;20035;-81
2022/04/17 10:55:59;;;;;;;3.60;2.25;;;;;;;;;;4938312;29;20040;-81
2022/04/17 10:58:24;;;;;;;3.63;2.30;;;;;;;;;;4938800;29;20598;-82
2022/04/17 11:00:49;;;;;;;4.43;2.20;;;;;;;;;;4938436;29;20079;-83
2022/04/17 11:03:15;;;;;;;4.57;2.10;;;;;;;;;;4938179;29;20036;-82
2022/04/17 11:08:25;;;;;;;3.88;2.28;;;;;;;;;;4937365;29;20043;-81
2022/04/17 11:10:52;;;;;;;2.92;2.17;;;;;;;;;;4936283;29;20036;-81
2022/04/17 11:13:18;;;;;;;4.40;2.20;;;;;;;;;;4921042;29;20126;-82
2022/04/17 11:15:43;;;;;;;3.90;2.40;;;;;;;;;;4937246;29;20533;-81
2022/04/17 11:18:08;;;;;;;3.92;2.20;;;;;;;;;;4937712;29;20035;-81
2022/04/17 11:20:34;;;;;;;3.42;2.10;;;;;;;;;;4937973;29;20093;-81
2022/04/17 11:22:59;;;;;;;2.67;2.10;;;;;;;;;;4938171;29;20060;-81
2022/04/17 11:25:25;;;;;;;3.83;2.13;;;;;;;;;;4935788;29;20492;-81
2022/04/17 11:27:50;;;;;;;5.72;2.10;;;;;;;;;;4937346;29;20119;-82
2022/04/17 11:30:15;;;;;;;3.00;2.20;;;;;;;;;;4938384;29;20067;-82
2022/04/17 11:32:40;;;;;;;2.78;1.83;;;;;;;;;;4936594;29;20096;-82
2022/04/17 11:35:06;;;;;;;4.65;2.05;;;;;;;;;;4935569;29;20039;-81
2022/04/17 11:37:31;;;;;;;4.10;1.98;;;;;;;;;;4936177;29;20405;-81
2022/04/17 11:39:57;;;;;;;3.03;1.98;;;;;;;;;;4937597;29;20146;-82
2022/04/17 11:42:22;;;;;;;3.83;2.20;;;;;;;;;;4937549;29;20044;-81
2022/04/17 11:44:48;;;;;;;2.65;1.98;;;;;;;;;;4937237;29;20035;-81
2022/04/17 11:47:13;;;;;;;2.78;2.05;;;;;;;;;;4937332;29;20062;-81
2022/04/17 11:49:38;;;;;;;3.50;2.10;;;;;;;;;;4937440;29;20062;-81
2022/04/17 11:52:03;;;;;;;4.63;2.15;;;;;;;;;;4935910;29;20086;-81
2022/04/17 11:54:29;;;;;;;3.22;2.30;;;;;;;;;;4936895;29;20035;-81
2022/04/17 11:56:54;;;;;;;4.45;2.50;;;;;;;;;;4935925;29;20040;-81
2022/04/17 11:59:19;;;;;;;4.45;2.25;;;;;;;;;;4936760;29;20055;-81
2022/04/17 12:01:44;;;;;;;3.33;2.10;;;;;;;;;;4936840;29;20032;-81
2022/04/17 12:04:10;;;;;;;3.28;2.20;;;;;;;;;;4935159;29;20405;-82
2022/04/17 12:06:35;;;;;;;5.10;2.80;;;;;;;;;;4937601;29;20031;-81
2022/04/17 12:09:01;;;;;;;8.57;4.50;;;;;;;;;;4936622;29;20066;-81
2022/04/17 12:11:26;;;;;;;13.10;7.57;;;;;;;;;;4937091;29;20070;-82
2022/04/17 12:13:51;;;;;;;8.55;5.13;;;;;;;;;;4937142;29;20023;-82
2022/04/17 12:16:16;;;;;;;6.82;4.35;;;;;;;;;;4935204;29;20067;-81
2022/04/17 12:18:42;;;;;;;4.30;2.85;;;;;;;;;;4935846;29;20047;-81
2022/04/17 12:21:07;;;;;;;3.83;2.28;;;;;;;;;;4936153;29;20110;-82
2022/04/17 12:23:32;;;;;;;3.47;2.40;;;;;;;;;;4936070;29;20028;-82
2022/04/17 12:25:59;;;;;;;3.72;2.30;;;;;;;;;;4934992;29;20416;-82
2022/04/17 12:28:25;;;;;;;3.40;2.60;;;;;;;;;;4936952;29;20031;-82
2022/04/17 12:30:50;;;;;;;3.80;2.20;;;;;;;;;;4935616;29;20493;-83
2022/04/17 12:33:15;;;;;;;4.85;2.00;;;;;;;;;;4937002;29;20042;-82
2022/04/17 12:35:42;;;;;;;4.78;2.88;;;;;;;;;;4934407;29;20036;-82
2022/04/17 12:38:07;;;;;;;3.58;2.10;;;;;;;;;;4936897;29;20031;-82
2022/04/17 12:40:35;;;;;;;4.93;2.75;;;;;;;;;;4936769;29;20140;-82
2022/04/17 12:43:01;;;;;;;7.78;5.22;;;;;;;;;;4935091;29;20055;-84
2022/04/17 12:45:26;;;;;;;5.97;2.90;;;;;;;;;;4935952;29;20032;-82
2022/04/17 12:47:51;;;;;;;4.47;2.88;;;;;;;;;;4934635;29;20043;-82
2022/04/17 12:50:16;;;;;;;4.43;2.55;;;;;;;;;;4936334;29;20036;-82
2022/04/17 12:52:42;;;;;;;4.45;2.20;;;;;;;;;;4935302;29;20040;-82
2022/04/17 12:55:07;;;;;;;5.85;3.30;;;;;;;;;;4935641;29;20504;-81
2022/04/17 12:57:32;;;;;;;4.55;2.40;;;;;;;;;;4936704;29;20058;-82
2022/04/17 12:59:57;;;;;;;4.47;2.10;;;;;;;;;;4935953;29;20492;-82
2022/04/17 13:02:23;;;;;;;4.80;2.13;;;;;;;;;;4918994;29;20085;-81
2022/04/17 13:04:48;;;;;;;4.00;2.30;;;;;;;;;;4934616;29;20396;-82
2022/04/17 13:07:13;;;;;;;6.65;3.67;;;;;;;;;;4935207;29;20118;-81
2022/04/17 13:09:39;;;;;;;3.70;2.42;;;;;;;;;;4935116;29;20370;-81
2022/04/17 13:12:04;;;;;;;5.10;2.20;;;;;;;;;;4936445;29;20504;-81
2022/04/17 13:14:29;;;;;;;3.10;2.00;;;;;;;;;;4934219;29;20119;-82
2022/04/17 13:16:56;;;;;;;4.10;2.00;;;;;;;;;;4935732;29;20071;-81
2022/04/17 13:19:22;;;;;;;3.15;2.38;;;;;;;;;;4936426;29;20075;-81
2022/04/17 13:21:47;;;;;;;3.05;2.17;;;;;;;;;;4936129;29;20027;-81
2022/04/17 13:24:15;;;;;;;3.28;1.90;;;;;;;;;;4935752;29;20073;-81
2022/04/17 13:26:40;;;;;;;4.25;2.17;;;;;;;;;;4934948;29;20393;-81
2022/04/17 13:29:06;;;;;;;3.42;1.98;;;;;;;;;;4936104;29;20473;-81
2022/04/17 13:31:31;;;;;;;3.58;1.70;;;;;;;;;;4935921;29;20040;-81
2022/04/17 13:33:56;;;;;;;2.50;1.60;;;;;;;;;;4939476;29;20508;-81
2022/04/17 13:36:21;;;;;;;3.70;1.80;;;;;;;;;;4939757;29;20059;-81
2022/04/17 13:38:47;;;;;;;2.90;1.90;;;;;;;;;;4939352;29;20067;-81
2022/04/17 13:41:12;;;;;;;6.13;2.40;;;;;;;;;;4938246;29;20091;-81
2022/04/17 13:43:37;;;;;;;4.50;2.08;;;;;;;;;;4939513;29;20445;-81
2022/04/17 13:46:02;;;;;;;2.92;1.90;;;;;;;;;;4921694;29;20095;-81
2022/04/17 13:48:28;;;;;;;3.17;1.60;;;;;;;;;;4939473;29;20034;-81
2022/04/17 13:50:53;;;;;;;3.45;1.70;;;;;;;;;;4939538;29;20400;-81
2022/04/17 13:53:18;;;;;;;3.35;1.73;;;;;;;;;;4939686;29;20416;-80
2022/04/17 13:55:43;;;;;;;3.20;1.80;;;;;;;;;;4939120;29;20028;-81
2022/04/17 13:58:09;;;;;;;2.30;1.60;;;;;;;;;;4939854;29;20083;-81
2022/04/17 14:00:34;;;;;;;1.90;1.50;;;;;;;;;;4938953;29;20051;-81
2022/04/17 14:03:00;;;;;;;3.25;1.90;;;;;;;;;;4939231;29;20036;-81
2022/04/17 14:05:27;;;;;;;2.20;1.52;;;;;;;;;;4938430;29;20519;-81
2022/04/17 14:07:52;;;;;;;2.78;1.55;;;;;;;;;;4939344;29;20063;-81
2022/04/17 14:10:18;;;;;;;3.05;1.77;;;;;;;;;;4938905;29;20075;-80
2022/04/17 14:12:43;;;;;;;3.80;1.65;;;;;;;;;;4939298;29;20040;-80
2022/04/17 14:15:08;;;;;;;4.93;1.90;;;;;;;;;;4938395;29;20031;-80
2022/04/17 14:17:33;;;;;;;2.95;1.90;;;;;;;;;;4943533;28;20035;-80
2022/04/17 14:19:59;;;;;;;2.85;1.50;;;;;;;;;;4958551;29;20039;-80
2022/04/17 14:22:24;;;;;;;2.97;1.60;;;;;;;;;;4958367;28;20035;-80
2022/04/17 14:24:49;;;;;;;4.80;1.60;;;;;;;;;;4955860;29;20047;-80
2022/04/17 14:27:14;;;;;;;4.97;1.55;;;;;;;;;;4957954;28;20411;-81
2022/04/17 14:29:40;;;;;;;3.47;1.70;;;;;;;;;;4958971;29;20038;-81
2022/04/17 14:32:05;;;;;;;3.60;2.00;;;;;;;;;;4958172;29;20125;-81
2022/04/17 14:34:30;;;;;;;7.03;1.77;;;;;;;;;;4956161;29;20523;-80
2022/04/17 14:36:56;;;;;;;4.22;1.70;;;;;;;;;;4957496;29;20035;-79
2022/04/17 14:39:21;;;;;;;3.15;1.80;;;;;;;;;;4938391;29;20119;-80
2022/04/17 14:41:46;;;;;;;2.72;1.80;;;;;;;;;;4937036;29;20061;-82
2022/04/17 14:44:12;;;;;;;3.03;1.90;;;;;;;;;;4935615;29;20115;-83
2022/04/17 14:46:37;;;;;;;3.17;1.90;;;;;;;;;;4937280;29;20040;-80
2022/04/17 14:49:02;;;;;;;2.25;1.50;;;;;;;;;;4968895;23;20067;-85
2022/04/17 14:51:27;;;;;;;2.78;1.83;;;;;;;;;;4972164;28;20040;-88